sensor_id;sensor_type;location;lat;lon;timestamp;pressure;altitude;pressure_sealevel;temperature;humidity
7668;BME280;3876;42.204;24.686;2023-03-04T00:02:25;99537.03;;;5.41;100.00
7668;BME280;3876;42.204;24.686;2023-03-04T00:04:52;99537.84;;;5.45;100.00
7668;BME280;3876;42.204;24.686;2023-03-04T00:07:20;99540.44;;;5.39;100.00
7668;BME280;3876;42.204;24.686;2023-03-04T00:09:47;99544.72;;;5.30;100.00
7668;BME280;3876;42.204;24.686;2023-03-04T00:12:13;99542.22;;;5.27;100.00
7668;BME280;3876;42.204;24.686;2023-03-04T00:14:40;99522.75;;;5.23;100.00
7668;BME280;3876;42.204;24.686;2023-03-04T00:17:07;99532.91;;;5.29;100.00
7668;BME280;3876;42.204;24.686;2023-03-04T00:19:34;99537.16;;;5.26;100.00
7668;BME280;3876;42.204;24.686;2023-03-04T00:22:02;99533.75;;;5.25;100.00
7668;BME280;3876;42.204;24.686;2023-03-04T00:24:31;99528.69;;;5.25;100.00
7668;BME280;3876;42.204;24.686;2023-03-04T00:26:58;99531.22;;;5.25;100.00
7668;BME280;3876;42.204;24.686;2023-03-04T00:29:24;99534.59;;;5.24;100.00
7668;BME280;3876;42.204;24.686;2023-03-04T00:31:52;99535.44;;;5.25;100.00
7668;BME280;3876;42.204;24.686;2023-03-04T00:34:19;99532.91;;;5.23;100.00
7668;BME280;3876;42.204;24.686;2023-03-04T00:36:46;99538.88;;;5.22;100.00
7668;BME280;3876;42.204;24.686;2023-03-04T00:39:12;99540.53;;;5.23;100.00
7668;BME280;3876;42.204;24.686;2023-03-04T00:41:40;99541.41;;;5.22;100.00
7668;BME280;3876;42.204;24.686;2023-03-04T00:44:07;99523.63;;;5.22;100.00
7668;BME280;3876;42.204;24.686;2023-03-04T00:46:34;99523.63;;;5.22;100.00
7668;BME280;3876;42.204;24.686;2023-03-04T00:49:01;99516.84;;;5.23;100.00
7668;BME280;3876;42.204;24.686;2023-03-04T00:51:28;99522.75;;;5.23;100.00
7668;BME280;3876;42.204;24.686;2023-03-04T00:53:54;99525.28;;;5.25;100.00
7668;BME280;3876;42.204;24.686;2023-03-04T00:56:21;99522.75;;;5.23;100.00
7668;BME280;3876;42.204;24.686;2023-03-04T00:58:49;99519.38;;;5.23;100.00
7668;BME280;3876;42.204;24.686;2023-03-04T01:01:16;99521.06;;;5.22;100.00
7668;BME280;3876;42.204;24.686;2023-03-04T01:03:43;99520.25;;;5.17;100.00
7668;BME280;3876;42.204;24.686;2023-03-04T01:06:10;99528.75;;;5.15;100.00
7668;BME280;3876;42.204;24.686;2023-03-04T01:08:37;99526.19;;;5.16;100.00
7668;BME280;3876;42.204;24.686;2023-03-04T01:11:04;99517.72;;;5.14;100.00
7668;BME280;3876;42.204;24.686;2023-03-04T01:13:31;99514.38;;;5.12;100.00
7668;BME280;3876;42.204;24.686;2023-03-04T01:15:59;99505.09;;;5.07;100.00
7668;BME280;3876;42.204;24.686;2023-03-04T01:18:26;99522.81;;;5.11;100.00
7668;BME280;3876;42.204;24.686;2023-03-04T01:20:52;99513.53;;;5.10;100.00
7668;BME280;3876;42.204;24.686;2023-03-04T01:23:19;99511.84;;;5.09;100.00
7668;BME280;3876;42.204;24.686;2023-03-04T01:25:46;99508.47;;;5.10;100.00
7668;BME280;3876;42.204;24.686;2023-03-04T01:28:13;99502.53;;;5.08;100.00
7668;BME280;3876;42.204;24.686;2023-03-04T01:30:39;99500.00;;;5.05;100.00
7668;BME280;3876;42.204;24.686;2023-03-04T01:33:07;99494.09;;;5.03;100.00
7668;BME280;3876;42.204;24.686;2023-03-04T01:35:34;99496.59;;;5.09;100.00
7668;BME280;3876;42.204;24.686;2023-03-04T01:38:01;99499.13;;;5.09;100.00
7668;BME280;3876;42.204;24.686;2023-03-04T01:40:29;99493.22;;;5.09;100.00
7668;BME280;3876;42.204;24.686;2023-03-04T01:42:56;99495.75;;;5.07;100.00
7668;BME280;3876;42.204;24.686;2023-03-04T01:45:23;99496.63;;;5.06;100.00
7668;BME280;3876;42.204;24.686;2023-03-04T01:47:50;99473.81;;;5.00;100.00
7668;BME280;3876;42.204;24.686;2023-03-04T01:50:30;99492.38;;;5.05;100.00
7668;BME280;3876;42.204;24.686;2023-03-04T01:52:58;99471.31;;;4.93;100.00
7668;BME280;3876;42.204;24.686;2023-03-04T01:55:25;99494.09;;;5.06;100.00
7668;BME280;3876;42.204;24.686;2023-03-04T01:57:53;99469.59;;;4.93;100.00
7668;BME280;3876;42.204;24.686;2023-03-04T02:00:27;99490.69;;;5.04;100.00
7668;BME280;3876;42.204;24.686;2023-03-04T02:02:58;99465.41;;;4.86;100.00
7668;BME280;3876;42.204;24.686;2023-03-04T02:05:27;99488.16;;;5.04;100.00
7668;BME280;3876;42.204;24.686;2023-03-04T02:07:54;99491.59;;;5.00;100.00
7668;BME280;3876;42.204;24.686;2023-03-04T02:10:22;99505.97;;;4.98;100.00
7668;BME280;3876;42.204;24.686;2023-03-04T02:12:50;99493.34;;;4.89;100.00
7668;BME280;3876;42.204;24.686;2023-03-04T02:15:17;99504.41;;;4.79;100.00
7668;BME280;3876;42.204;24.686;2023-03-04T02:17:44;99494.28;;;4.73;100.00
7668;BME280;3876;42.204;24.686;2023-03-04T02:20:31;99486.69;;;4.68;100.00
7668;BME280;3876;42.204;24.686;2023-03-04T02:23:08;99492.56;;;4.72;100.00
7668;BME280;3876;42.204;24.686;2023-03-04T02:25:42;99496.00;;;4.71;100.00
7668;BME280;3876;42.204;24.686;2023-03-04T02:28:12;99502.75;;;4.66;100.00
7668;BME280;3876;42.204;24.686;2023-03-04T02:30:39;99506.22;;;4.50;100.00
7668;BME280;3876;42.204;24.686;2023-03-04T02:33:08;99494.47;;;4.31;100.00
7668;BME280;3876;42.204;24.686;2023-03-04T02:35:36;99486.00;;;4.32;100.00
7668;BME280;3876;42.204;24.686;2023-03-04T02:38:02;99481.75;;;4.34;100.00
7668;BME280;3876;42.204;24.686;2023-03-04T02:40:30;99480.09;;;4.33;100.00
7668;BME280;3876;42.204;24.686;2023-03-04T02:42:59;99475.84;;;4.35;100.00
7668;BME280;3876;42.204;24.686;2023-03-04T02:45:34;99455.59;;;4.26;100.00
7668;BME280;3876;42.204;24.686;2023-03-04T02:48:01;99469.09;;;4.31;100.00
7668;BME280;3876;42.204;24.686;2023-03-04T02:50:33;99470.78;;;4.24;100.00
7668;BME280;3876;42.204;24.686;2023-03-04T02:53:00;99444.66;;;4.10;100.00
7668;BME280;3876;42.204;24.686;2023-03-04T02:55:27;99467.41;;;4.27;100.00
7668;BME280;3876;42.204;24.686;2023-03-04T02:57:54;99469.16;;;4.12;100.00
7668;BME280;3876;42.204;24.686;2023-03-04T03:00:21;99470.88;;;4.01;100.00
7668;BME280;3876;42.204;24.686;2023-03-04T03:02:49;99478.47;;;4.01;100.00
7668;BME280;3876;42.204;24.686;2023-03-04T03:05:16;99469.19;;;4.06;100.00
7668;BME280;3876;42.204;24.686;2023-03-04T03:07:43;99469.16;;;4.11;100.00
7668;BME280;3876;42.204;24.686;2023-03-04T03:10:10;99475.94;;;4.13;100.00
7668;BME280;3876;42.204;24.686;2023-03-04T03:12:37;99479.28;;;4.15;100.00
7668;BME280;3876;42.204;24.686;2023-03-04T03:15:05;99481.81;;;4.18;100.00
7668;BME280;3876;42.204;24.686;2023-03-04T03:17:32;99474.22;;;4.15;100.00
7668;BME280;3876;42.204;24.686;2023-03-04T03:20:01;99489.44;;;4.18;100.00
7668;BME280;3876;42.204;24.686;2023-03-04T03:22:27;99490.28;;;4.17;100.00
7668;BME280;3876;42.204;24.686;2023-03-04T03:24:54;99477.66;;;3.96;100.00
7668;BME280;3876;42.204;24.686;2023-03-04T03:27:21;99489.50;;;4.00;100.00
7668;BME280;3876;42.204;24.686;2023-03-04T03:29:48;99489.47;;;4.03;100.00
7668;BME280;3876;42.204;24.686;2023-03-04T03:32:15;99492.84;;;4.08;100.00
7668;BME280;3876;42.204;24.686;2023-03-04T03:34:42;99486.94;;;4.09;100.00
7668;BME280;3876;42.204;24.686;2023-03-04T03:37:12;99489.44;;;4.15;100.00
7668;BME280;3876;42.204;24.686;2023-03-04T03:39:39;99491.09;;;4.21;100.00
7668;BME280;3876;42.204;24.686;2023-03-04T03:42:05;99484.34;;;4.21;100.00
7668;BME280;3876;42.204;24.686;2023-03-04T03:44:32;99484.34;;;4.21;100.00
7668;BME280;3876;42.204;24.686;2023-03-04T03:46:59;99486.03;;;4.26;100.00
7668;BME280;3876;42.204;24.686;2023-03-04T03:49:26;99480.94;;;4.26;100.00
7668;BME280;3876;42.204;24.686;2023-03-04T03:51:53;99484.28;;;4.34;100.00
7668;BME280;3876;42.204;24.686;2023-03-04T03:54:21;99460.66;;;4.29;100.00
7668;BME280;3876;42.204;24.686;2023-03-04T03:56:48;99480.06;;;4.37;100.00
7668;BME280;3876;42.204;24.686;2023-03-04T03:59:15;99480.88;;;4.41;100.00
7668;BME280;3876;42.204;24.686;2023-03-04T04:01:41;99490.22;;;4.34;100.00
7668;BME280;3876;42.204;24.686;2023-03-04T04:04:08;99483.44;;;4.33;100.00
7668;BME280;3876;42.204;24.686;2023-03-04T04:06:35;99486.00;;;4.32;100.00
7668;BME280;3876;42.204;24.686;2023-03-04T04:09:02;99485.97;;;4.33;100.00
7668;BME280;3876;42.204;24.686;2023-03-04T04:11:30;99490.22;;;4.36;100.00
7668;BME280;3876;42.204;24.686;2023-03-04T04:13:57;99482.63;;;4.33;100.00
7668;BME280;3876;42.204;24.686;2023-03-04T04:16:24;99486.81;;;4.34;100.00
7668;BME280;3876;42.204;24.686;2023-03-04T04:18:50;99489.38;;;4.31;100.00
7668;BME280;3876;42.204;24.686;2023-03-04T04:21:17;99486.03;;;4.29;100.00
7668;BME280;3876;42.204;24.686;2023-03-04T04:23:44;99490.25;;;4.28;100.00
7668;BME280;3876;42.204;24.686;2023-03-04T04:26:10;99490.25;;;4.28;100.00
7668;BME280;3876;42.204;24.686;2023-03-04T04:28:39;99486.84;;;4.28;100.00
7668;BME280;3876;42.204;24.686;2023-03-04T04:31:06;99490.25;;;4.30;100.00
7668;BME280;3876;42.204;24.686;2023-03-04T04:33:33;99486.03;;;4.26;100.00
7668;BME280;3876;42.204;24.686;2023-03-04T04:36:00;99496.16;;;4.29;100.00
7668;BME280;3876;42.204;24.686;2023-03-04T04:38:28;99484.34;;;4.21;100.00
7668;BME280;3876;42.204;24.686;2023-03-04T04:40:55;99503.75;;;4.35;100.00
7668;BME280;3876;42.204;24.686;2023-03-04T04:43:22;99512.19;;;4.40;100.00
7668;BME280;3876;42.204;24.686;2023-03-04T04:45:50;99480.97;;;4.21;100.00
7668;BME280;3876;42.204;24.686;2023-03-04T04:48:17;99510.50;;;4.39;100.00
7668;BME280;3876;42.204;24.686;2023-03-04T04:50:44;99511.38;;;4.32;100.00
7668;BME280;3876;42.204;24.686;2023-03-04T04:53:11;99518.16;;;4.33;100.00
7668;BME280;3876;42.204;24.686;2023-03-04T04:55:38;99513.06;;;4.33;100.00
7668;BME280;3876;42.204;24.686;2023-03-04T04:58:05;99508.00;;;4.23;100.00
7668;BME280;3876;42.204;24.686;2023-03-04T05:00:32;99521.56;;;4.19;100.00
7668;BME280;3876;42.204;24.686;2023-03-04T05:03:00;99521.56;;;4.10;100.00
7668;BME280;3876;42.204;24.686;2023-03-04T05:05:27;99508.09;;;4.07;100.00
7668;BME280;3876;42.204;24.686;2023-03-04T05:07:54;99508.09;;;3.92;100.00
7668;BME280;3876;42.204;24.686;2023-03-04T05:10:20;99521.63;;;3.83;100.00
7668;BME280;3876;42.204;24.686;2023-03-04T05:12:47;99515.72;;;3.78;100.00
7668;BME280;3876;42.204;24.686;2023-03-04T05:15:14;99518.25;;;3.75;100.00
7668;BME280;3876;42.204;24.686;2023-03-04T05:17:41;99529.25;;;3.66;100.00
7668;BME280;3876;42.204;24.686;2023-03-04T05:20:10;99525.03;;;3.67;100.00
7668;BME280;3876;42.204;24.686;2023-03-04T05:22:37;99510.69;;;3.33;100.00
7668;BME280;3876;42.204;24.686;2023-03-04T05:25:04;99516.59;;;3.20;100.00
7668;BME280;3876;42.204;24.686;2023-03-04T05:27:31;99525.03;;;3.31;100.00
7668;BME280;3876;42.204;24.686;2023-03-04T05:29:58;99521.66;;;3.41;100.00
7668;BME280;3876;42.204;24.686;2023-03-04T05:32:25;99524.19;;;3.42;100.00
7668;BME280;3876;42.204;24.686;2023-03-04T05:34:52;99519.97;;;3.49;100.00
7668;BME280;3876;42.204;24.686;2023-03-04T05:37:20;99509.81;;;3.46;100.00
7668;BME280;3876;42.204;24.686;2023-03-04T05:39:47;99512.34;;;3.40;100.00
7668;BME280;3876;42.204;24.686;2023-03-04T05:42:14;99516.59;;;3.47;100.00
7668;BME280;3876;42.204;24.686;2023-03-04T05:44:40;99514.91;;;3.55;100.00
7668;BME280;3876;42.204;24.686;2023-03-04T05:47:07;99520.81;;;3.66;100.00
7668;BME280;3876;42.204;24.686;2023-03-04T05:49:34;99517.41;;;3.68;100.00
7668;BME280;3876;42.204;24.686;2023-03-04T05:52:00;99518.25;;;3.69;100.00
7668;BME280;3876;42.204;24.686;2023-03-04T05:54:29;99529.25;;;3.74;100.00
7668;BME280;3876;42.204;24.686;2023-03-04T05:56:55;99531.78;;;3.80;100.00
7668;BME280;3876;42.204;24.686;2023-03-04T05:59:22;99528.41;;;3.84;100.00
7668;BME280;3876;42.204;24.686;2023-03-04T06:01:49;99503.03;;;3.72;100.00
7668;BME280;3876;42.204;24.686;2023-03-04T06:04:16;99525.88;;;3.90;100.00
7668;BME280;3876;42.204;24.686;2023-03-04T06:06:43;99539.38;;;3.91;100.00
7668;BME280;3876;42.204;24.686;2023-03-04T06:09:11;99527.53;;;3.88;100.00
7668;BME280;3876;42.204;24.686;2023-03-04T06:11:40;99534.31;;;3.88;100.00
7668;BME280;3876;42.204;24.686;2023-03-04T06:14:06;99523.31;;;3.90;100.00
7668;BME280;3876;42.204;24.686;2023-03-04T06:16:33;99531.75;;;3.92;100.00
7668;BME280;3876;42.204;24.686;2023-03-04T06:19:00;99531.75;;;3.98;100.00
7668;BME280;3876;42.204;24.686;2023-03-04T06:21:27;99541.88;;;4.07;100.00
7668;BME280;3876;42.204;24.686;2023-03-04T06:23:53;99545.25;;;4.21;100.00
7668;BME280;3876;42.204;24.686;2023-03-04T06:26:20;99548.59;;;4.27;100.00
7668;BME280;3876;42.204;24.686;2023-03-04T06:28:48;99551.97;;;4.32;100.00
7668;BME280;3876;42.204;24.686;2023-03-04T06:31:16;99526.63;;;4.26;100.00
7668;BME280;3876;42.204;24.686;2023-03-04T06:33:42;99555.31;;;4.40;100.00
7668;BME280;3876;42.204;24.686;2023-03-04T06:36:10;99560.41;;;4.46;100.00
7668;BME280;3876;42.204;24.686;2023-03-04T06:38:37;99557.00;;;4.54;100.00
7668;BME280;3876;42.204;24.686;2023-03-04T06:41:08;99562.03;;;4.56;100.00
7668;BME280;3876;42.204;24.686;2023-03-04T06:43:35;99578.09;;;4.62;100.00
7668;BME280;3876;42.204;24.686;2023-03-04T06:46:04;99564.56;;;4.63;100.00
7668;BME280;3876;42.204;24.686;2023-03-04T06:48:31;99567.94;;;4.70;100.00
7668;BME280;3876;42.204;24.686;2023-03-04T06:50:57;99573.84;;;4.72;100.00
7668;BME280;3876;42.204;24.686;2023-03-04T06:53:24;99578.91;;;4.72;100.00
7668;BME280;3876;42.204;24.686;2023-03-04T06:55:51;99585.69;;;4.78;100.00
7668;BME280;3876;42.204;24.686;2023-03-04T06:58:18;99570.38;;;4.85;100.00
7668;BME280;3876;42.204;24.686;2023-03-04T07:00:44;99572.03;;;4.98;100.00
7668;BME280;3876;42.204;24.686;2023-03-04T07:03:13;99572.81;;;5.08;100.00
7668;BME280;3876;42.204;24.686;2023-03-04T07:05:39;99566.88;;;5.07;100.00
7668;BME280;3876;42.204;24.686;2023-03-04T07:08:07;99573.59;;;5.20;100.00
7668;BME280;3876;42.204;24.686;2023-03-04T07:10:34;99568.53;;;5.17;100.00
7668;BME280;3876;42.204;24.686;2023-03-04T07:13:01;99571.94;;;5.19;100.00
7668;BME280;3876;42.204;24.686;2023-03-04T07:15:34;99573.59;;;5.26;100.00
7668;BME280;3876;42.204;24.686;2023-03-04T07:18:02;99577.75;;;5.34;100.00
7668;BME280;3876;42.204;24.686;2023-03-04T07:20:35;99548.16;;;5.23;100.00
7668;BME280;3876;42.204;24.686;2023-03-04T07:23:03;99572.59;;;5.44;100.00
7668;BME280;3876;42.204;24.686;2023-03-04T07:25:29;99575.03;;;5.61;100.00
7668;BME280;3876;42.204;24.686;2023-03-04T07:27:56;99565.63;;;5.69;100.00
7668;BME280;3876;42.204;24.686;2023-03-04T07:30:23;99563.09;;;5.69;100.00
7668;BME280;3876;42.204;24.686;2023-03-04T07:32:50;99563.91;;;5.74;100.00
7668;BME280;3876;42.204;24.686;2023-03-04T07:35:16;99571.47;;;5.80;100.00
7668;BME280;3876;42.204;24.686;2023-03-04T07:37:47;99573.22;;;5.78;100.00
7668;BME280;3876;42.204;24.686;2023-03-04T07:40:14;99566.41;;;5.77;100.00
7668;BME280;3876;42.204;24.686;2023-03-04T07:42:41;99572.34;;;5.77;100.00
7668;BME280;3876;42.204;24.686;2023-03-04T07:45:09;99563.09;;;5.69;100.00
7668;BME280;3876;42.204;24.686;2023-03-04T07:47:40;99559.63;;;5.76;100.00
7668;BME280;3876;42.204;24.686;2023-03-04T07:50:09;99549.50;;;5.73;100.00
7668;BME280;3876;42.204;24.686;2023-03-04T07:52:37;99562.13;;;5.82;100.00
7668;BME280;3876;42.204;24.686;2023-03-04T07:55:06;99556.25;;;5.77;100.00
7668;BME280;3876;42.204;24.686;2023-03-04T07:57:33;99558.75;;;5.81;100.00
7668;BME280;3876;42.204;24.686;2023-03-04T07:59:59;99557.00;;;5.93;100.00
7668;BME280;3876;42.204;24.686;2023-03-04T08:02:26;99554.38;;;6.00;100.00
7668;BME280;3876;42.204;24.686;2023-03-04T08:04:53;99551.88;;;5.97;100.00
7668;BME280;3876;42.204;24.686;2023-03-04T08:07:20;99549.25;;;6.03;100.00
7668;BME280;3876;42.204;24.686;2023-03-04T08:09:47;99549.25;;;6.03;100.00
7668;BME280;3876;42.204;24.686;2023-03-04T08:12:17;99553.59;;;5.94;100.00
7668;BME280;3876;42.204;24.686;2023-03-04T08:14:44;99551.03;;;5.95;100.00
7668;BME280;3876;42.204;24.686;2023-03-04T08:17:11;99557.78;;;5.99;100.00
7668;BME280;3876;42.204;24.686;2023-03-04T08:19:39;99550.94;;;6.04;100.00
7668;BME280;3876;42.204;24.686;2023-03-04T08:22:06;99550.03;;;6.13;100.00
7668;BME280;3876;42.204;24.686;2023-03-04T08:24:33;99549.09;;;6.18;100.00
7668;BME280;3876;42.204;24.686;2023-03-04T08:27:00;99543.97;;;6.21;100.00
7668;BME280;3876;42.204;24.686;2023-03-04T08:29:29;99543.03;;;6.31;100.00
7668;BME280;3876;42.204;24.686;2023-03-04T08:31:56;99548.84;;;6.43;100.00
7668;BME280;3876;42.204;24.686;2023-03-04T08:34:26;99551.28;;;6.50;100.00
7668;BME280;3876;42.204;24.686;2023-03-04T08:36:53;99550.41;;;6.56;100.00
7668;BME280;3876;42.204;24.686;2023-03-04T08:39:20;99559.75;;;6.54;100.00
7668;BME280;3876;42.204;24.686;2023-03-04T08:41:47;99560.56;;;6.59;100.00
7668;BME280;3876;42.204;24.686;2023-03-04T08:44:14;99562.19;;;6.63;100.00
7668;BME280;3876;42.204;24.686;2023-03-04T08:46:42;99569.72;;;6.73;100.00
7668;BME280;3876;42.204;24.686;2023-03-04T08:49:10;99568.78;;;6.79;100.00
7668;BME280;3876;42.204;24.686;2023-03-04T08:51:38;99568.69;;;6.88;100.00
7668;BME280;3876;42.204;24.686;2023-03-04T08:54:05;99566.78;;;7.02;100.00
7668;BME280;3876;42.204;24.686;2023-03-04T08:56:32;99563.16;;;7.18;100.00
7668;BME280;3876;42.204;24.686;2023-03-04T08:58:59;99553.72;;;7.26;100.00
7668;BME280;3876;42.204;24.686;2023-03-04T09:01:26;99561.97;;;7.42;100.00
7668;BME280;3876;42.204;24.686;2023-03-04T09:03:54;99556.78;;;7.47;100.00
7668;BME280;3876;42.204;24.686;2023-03-04T09:06:21;99550.78;;;7.51;100.00
7668;BME280;3876;42.204;24.686;2023-03-04T09:08:47;99545.47;;;7.64;100.00
7668;BME280;3876;42.204;24.686;2023-03-04T09:11:15;99535.97;;;7.74;100.00
7668;BME280;3876;42.204;24.686;2023-03-04T09:13:41;99536.53;;;7.89;100.00
7668;BME280;3876;42.204;24.686;2023-03-04T09:16:10;99532.13;;;7.99;100.00
7668;BME280;3876;42.204;24.686;2023-03-04T09:18:38;99531.91;;;8.11;100.00
7668;BME280;3876;42.204;24.686;2023-03-04T09:21:07;99526.53;;;8.26;100.00
7668;BME280;3876;42.204;24.686;2023-03-04T09:23:34;99524.78;;;8.30;100.00
7668;BME280;3876;42.204;24.686;2023-03-04T09:26:01;99523.69;;;8.41;100.00
7668;BME280;3876;42.204;24.686;2023-03-04T09:28:28;99526.06;;;8.51;100.00
7668;BME280;3876;42.204;24.686;2023-03-04T09:30:54;99529.31;;;8.59;100.00
7668;BME280;3876;42.204;24.686;2023-03-04T09:33:21;99529.94;;;8.70;100.00
7668;BME280;3876;42.204;24.686;2023-03-04T09:35:48;99527.22;;;8.77;100.00
7668;BME280;3876;42.204;24.686;2023-03-04T09:38:16;99536.47;;;8.83;100.00
7668;BME280;3876;42.204;24.686;2023-03-04T09:40:45;99531.09;;;8.95;100.00
7668;BME280;3876;42.204;24.686;2023-03-04T09:43:18;99530.22;;;8.98;100.00
7668;BME280;3876;42.204;24.686;2023-03-04T09:45:48;99513.75;;;9.09;100.00
7668;BME280;3876;42.204;24.686;2023-03-04T09:48:19;99530.41;;;9.27;100.00
7668;BME280;3876;42.204;24.686;2023-03-04T09:51:04;99511.66;;;9.26;100.00
7668;BME280;3876;42.204;24.686;2023-03-04T09:53:39;99522.53;;;9.36;100.00
7668;BME280;3876;42.204;24.686;2023-03-04T09:56:11;99521.44;;;9.44;100.00
7668;BME280;3876;42.204;24.686;2023-03-04T09:58:46;99519.72;;;9.46;100.00
7668;BME280;3876;42.204;24.686;2023-03-04T10:01:19;99512.03;;;9.46;100.00
7668;BME280;3876;42.204;24.686;2023-03-04T10:03:50;99515.38;;;9.48;100.00
7668;BME280;3876;42.204;24.686;2023-03-04T10:06:20;99518.97;;;9.41;100.00
7668;BME280;3876;42.204;24.686;2023-03-04T10:08:55;99499.38;;;9.40;100.00
7668;BME280;3876;42.204;24.686;2023-03-04T10:11:26;99514.38;;;9.56;100.00
7668;BME280;3876;42.204;24.686;2023-03-04T10:14:14;99514.38;;;9.56;100.00
7668;BME280;3876;42.204;24.686;2023-03-04T10:16:44;99514.63;;;9.43;100.00
7668;BME280;3876;42.204;24.686;2023-03-04T10:19:23;99508.47;;;9.52;100.00
7668;BME280;3876;42.204;24.686;2023-03-04T10:21:54;99508.34;;;9.57;100.00
7668;BME280;3876;42.204;24.686;2023-03-04T10:24:26;99497.09;;;9.64;100.00
7668;BME280;3876;42.204;24.686;2023-03-04T10:26:56;99490.25;;;9.66;100.00
7668;BME280;3876;42.204;24.686;2023-03-04T10:29:26;99497.69;;;9.75;100.00
7668;BME280;3876;42.204;24.686;2023-03-04T10:31:55;99491.44;;;9.85;100.00
7668;BME280;3876;42.204;24.686;2023-03-04T10:34:22;99484.66;;;9.82;100.00
7668;BME280;3876;42.204;24.686;2023-03-04T10:36:54;99472.31;;;9.66;100.00
7668;BME280;3876;42.204;24.686;2023-03-04T10:39:26;99488.06;;;9.83;100.00
7668;BME280;3876;42.204;24.686;2023-03-04T10:41:56;99483.69;;;9.88;100.00
7668;BME280;3876;42.204;24.686;2023-03-04T10:44:24;99448.09;;;9.79;100.00
7668;BME280;3876;42.204;24.686;2023-03-04T10:46:53;99465.34;;;10.03;100.00
7668;BME280;3876;42.204;24.686;2023-03-04T10:49:20;99469.50;;;10.07;100.00
7668;BME280;3876;42.204;24.686;2023-03-04T10:51:52;99458.25;;;10.14;100.00
7668;BME280;3876;42.204;24.686;2023-03-04T10:54:26;99463.28;;;10.17;100.00
7668;BME280;3876;42.204;24.686;2023-03-04T10:57:02;99457.16;;;10.23;100.00
7668;BME280;3876;42.204;24.686;2023-03-04T10:59:48;99443.22;;;10.33;100.00
7668;BME280;3876;42.204;24.686;2023-03-04T11:02:23;99444.94;;;10.32;100.00
7668;BME280;3876;42.204;24.686;2023-03-04T11:04:53;99442.25;;;10.37;100.00
7668;BME280;3876;42.204;24.686;2023-03-04T11:07:22;99442.19;;;10.38;100.00
7668;BME280;3876;42.204;24.686;2023-03-04T11:09:51;99433.53;;;10.42;100.00
7668;BME280;3876;42.204;24.686;2023-03-04T11:12:19;99426.63;;;10.44;100.00
7668;BME280;3876;42.204;24.686;2023-03-04T11:14:48;99417.97;;;10.48;100.00
7668;BME280;3876;42.204;24.686;2023-03-04T11:17:18;99412.84;;;10.48;100.00
7668;BME280;3876;42.204;24.686;2023-03-04T11:19:48;99411.88;;;10.52;100.00
7668;BME280;3876;42.204;24.686;2023-03-04T11:22:19;99410.84;;;10.58;100.00
7668;BME280;3876;42.204;24.686;2023-03-04T11:24:55;99398.78;;;10.62;100.00
7668;BME280;3876;42.204;24.686;2023-03-04T11:27:32;99395.03;;;10.44;100.00
7668;BME280;3876;42.204;24.686;2023-03-04T11:30:12;99397.47;;;10.48;100.00
7668;BME280;3876;42.204;24.686;2023-03-04T11:32:44;99399.75;;;10.58;100.00
7668;BME280;3876;42.204;24.686;2023-03-04T11:35:19;99397.94;;;10.61;100.00
7668;BME280;3876;42.204;24.686;2023-03-04T11:37:53;99396.00;;;10.69;100.00
7668;BME280;3876;42.204;24.686;2023-03-04T11:40:29;99391.78;;;10.67;100.00
7668;BME280;3876;42.204;24.686;2023-03-04T11:43:02;99391.50;;;10.76;100.00
7668;BME280;3876;42.204;24.686;2023-03-04T11:45:51;99390.59;;;10.77;100.00
7668;BME280;3876;42.204;24.686;2023-03-04T11:48:34;99387.84;;;10.83;100.00
7668;BME280;3876;42.204;24.686;2023-03-04T11:51:10;99378.34;;;10.86;100.00
7668;BME280;3876;42.204;24.686;2023-03-04T11:53:49;99379.19;;;10.87;100.00
7668;BME280;3876;42.204;24.686;2023-03-04T11:56:29;99362.41;;;10.77;100.00
7668;BME280;3876;42.204;24.686;2023-03-04T11:59:26;99371.66;;;10.82;100.00
7668;BME280;3876;42.204;24.686;2023-03-04T12:02:17;99374.25;;;10.81;100.00
7668;BME280;3876;42.204;24.686;2023-03-04T12:05:16;99371.78;;;10.78;100.00
7668;BME280;3876;42.204;24.686;2023-03-04T12:10:48;99361.44;;;10.81;100.00
7668;BME280;3876;42.204;24.686;2023-03-04T12:13:45;99370.81;;;10.82;100.00
7668;BME280;3876;42.204;24.686;2023-03-04T12:16:31;99363.06;;;10.83;100.00
7668;BME280;3876;42.204;24.686;2023-03-04T12:19:13;99359.59;;;10.84;100.00
7668;BME280;3876;42.204;24.686;2023-03-04T12:21:57;99353.72;;;10.81;100.00
7668;BME280;3876;42.204;24.686;2023-03-04T12:24:36;99354.38;;;10.87;100.00
7668;BME280;3876;42.204;24.686;2023-03-04T12:27:16;99352.22;;;11.01;100.00
7668;BME280;3876;42.204;24.686;2023-03-04T12:29:55;99347.13;;;11.00;100.00
7668;BME280;3876;42.204;24.686;2023-03-04T12:32:31;99349.47;;;11.06;100.00
7668;BME280;3876;42.204;24.686;2023-03-04T12:35:22;99344.34;;;11.06;100.00
7668;BME280;3876;42.204;24.686;2023-03-04T12:38:08;99338.25;;;11.10;100.00
7668;BME280;3876;42.204;24.686;2023-03-04T12:40:46;99334.09;;;11.06;100.00
7668;BME280;3876;42.204;24.686;2023-03-04T12:43:29;99334.41;;;10.97;100.00
7668;BME280;3876;42.204;24.686;2023-03-04T12:46:10;99327.59;;;10.96;100.00
7668;BME280;3876;42.204;24.686;2023-03-04T12:48:40;99326.34;;;11.07;100.00
7668;BME280;3876;42.204;24.686;2023-03-04T12:51:20;99327.78;;;11.16;100.00
7668;BME280;3876;42.204;24.686;2023-03-04T12:53:59;99302.47;;;11.05;100.00
7668;BME280;3876;42.204;24.686;2023-03-04T12:56:36;99310.44;;;11.23;100.00
7668;BME280;3876;42.204;24.686;2023-03-04T12:59:03;99293.69;;;11.13;100.00
7668;BME280;3876;42.204;24.686;2023-03-04T13:01:35;99305.63;;;11.38;100.00
7668;BME280;3876;42.204;24.686;2023-03-04T13:04:10;99300.88;;;11.51;100.00
7668;BME280;3876;42.204;24.686;2023-03-04T13:06:43;99307.31;;;11.63;100.00
7668;BME280;3876;42.204;24.686;2023-03-04T13:09:17;99297.59;;;11.72;100.00
7668;BME280;3876;42.204;24.686;2023-03-04T13:11:53;99293.00;;;11.80;100.00
7668;BME280;3876;42.204;24.686;2023-03-04T13:14:28;99284.63;;;11.75;100.00
7668;BME280;3876;42.204;24.686;2023-03-04T13:16:58;99297.03;;;11.87;100.00
7668;BME280;3876;42.204;24.686;2023-03-04T13:19:48;99288.00;;;11.99;100.00
7668;BME280;3876;42.204;24.686;2023-03-04T13:25:42;99286.31;;;12.21;100.00
7668;BME280;3876;42.204;24.686;2023-03-04T13:28:23;99292.97;;;12.27;98.96
7668;BME280;3876;42.204;24.686;2023-03-04T13:34:02;99284.34;;;12.28;99.23